createdAt,value
2022-09-26T00:00:34.228Z,96.51
2022-09-26T00:01:34.273Z,96.51
2022-09-26T00:02:34.252Z,96.41
2022-09-26T00:03:34.192Z,96.61
2022-09-26T00:04:34.178Z,96.81
2022-09-26T00:05:34.167Z,96.92
2022-09-26T00:06:34.171Z,97.16
2022-09-26T00:07:34.138Z,97.16
2022-09-26T00:08:34.167Z,97.12
2022-09-26T00:09:34.132Z,97.06
2022-09-26T00:10:34.117Z,97.06
2022-09-26T00:11:34.129Z,97.06
2022-09-26T00:12:34.086Z,97.06
2022-09-26T00:13:34.080Z,97.37
2022-09-26T00:14:34.097Z,97.37
2022-09-26T00:15:34.056Z,97.27
2022-09-26T00:16:34.094Z,97.06
2022-09-26T00:17:34.031Z,97.06
2022-09-26T00:18:34.044Z,96.96
2022-09-26T00:19:34.040Z,97.27
2022-09-26T00:20:33.999Z,97.37
2022-09-26T00:21:34.112Z,97.47
2022-09-26T00:22:33.994Z,97.57
2022-09-26T00:23:33.974Z,97.37
2022-09-26T00:24:34.000Z,97.16
2022-09-26T00:25:33.948Z,97.16
2022-09-26T00:26:33.970Z,97.16
2022-09-26T00:27:33.936Z,96.86
2022-09-26T00:28:33.932Z,96.86
2022-09-26T00:29:33.917Z,96.55
2022-09-26T00:30:34.063Z,97.00
2022-09-26T00:31:33.885Z,97.11
2022-09-26T00:32:33.881Z,97.11
2022-09-26T00:33:33.885Z,97.41
2022-09-26T00:34:33.854Z,97.21
2022-09-26T00:35:33.842Z,97.41
2022-09-26T00:36:38.288Z,97.52
2022-09-26T00:37:34.817Z,97.72
2022-09-26T00:38:33.818Z,97.41
2022-09-26T00:39:33.818Z,97.11
2022-09-26T00:40:33.846Z,96.91
2022-09-26T00:41:33.826Z,96.95
2022-09-26T00:42:33.786Z,97.05
2022-09-26T00:43:33.756Z,97.16
2022-09-26T00:44:33.749Z,97.46
2022-09-26T00:45:33.791Z,97.56
2022-09-26T00:46:33.814Z,97.16
2022-09-26T00:47:33.768Z,96.84
2022-09-26T00:48:33.710Z,96.95
2022-09-26T00:49:33.689Z,97.05
2022-09-26T00:50:33.687Z,96.75
2022-09-26T00:51:33.660Z,96.84
2022-09-26T00:52:33.699Z,96.69
2022-09-26T00:53:33.650Z,97.00
2022-09-26T00:54:33.637Z,97.40
2022-09-26T00:55:33.632Z,97.40
2022-09-26T00:56:33.617Z,97.36
2022-09-26T00:57:33.631Z,97.20
2022-09-26T00:58:33.603Z,96.95
2022-09-26T00:59:33.601Z,96.69
2022-09-26T01:00:34.312Z,97.00
2022-09-26T01:01:33.685Z,96.75
2022-09-26T01:02:33.651Z,96.84
2022-09-26T01:03:33.552Z,96.64
2022-09-26T01:04:33.545Z,96.44
2022-09-26T01:05:33.521Z,96.44
2022-09-26T01:06:33.503Z,96.44
2022-09-26T01:07:33.521Z,96.44
2022-09-26T01:08:33.496Z,96.03
2022-09-26T01:09:33.476Z,95.62
2022-09-26T01:10:33.462Z,95.52
2022-09-26T01:11:33.452Z,95.26
2022-09-26T01:12:33.475Z,95.26
2022-09-26T01:13:33.446Z,95.47
2022-09-26T01:14:33.427Z,95.87
2022-09-26T01:15:33.416Z,96.08
2022-09-26T01:16:33.423Z,95.77
2022-09-26T01:17:33.396Z,95.87
2022-09-26T01:18:33.405Z,95.57
2022-09-26T01:19:33.384Z,95.77
2022-09-26T01:20:33.356Z,95.87
2022-09-26T01:21:33.345Z,96.18
2022-09-26T01:22:33.339Z,96.28
2022-09-26T01:23:33.348Z,95.67
2022-09-26T01:24:33.326Z,95.67
2022-09-26T01:25:33.308Z,95.77
2022-09-26T01:26:33.288Z,95.67
2022-09-26T01:27:33.279Z,95.57
2022-09-26T01:28:33.299Z,95.47
2022-09-26T01:29:33.260Z,95.26
2022-09-26T01:30:33.273Z,94.75
2022-09-26T01:31:33.241Z,94.95
2022-09-26T01:32:33.220Z,94.95
2022-09-26T01:33:33.249Z,95.26
2022-09-26T01:34:33.219Z,95.47
2022-09-26T01:35:33.201Z,95.20
2022-09-26T01:36:33.180Z,95.10
2022-09-26T01:37:33.180Z,94.70
2022-09-26T01:38:33.189Z,95.00
2022-09-26T01:39:33.174Z,95.31
2022-09-26T01:40:33.171Z,95.81
2022-09-26T01:41:33.131Z,95.61
2022-09-26T01:42:33.115Z,95.72
2022-09-26T01:43:33.110Z,95.92
2022-09-26T01:44:33.126Z,95.92
2022-09-26T01:45:33.105Z,95.51
2022-09-26T01:46:33.084Z,95.31
2022-09-26T01:47:33.073Z,95.31
2022-09-26T01:48:33.053Z,95.41
2022-09-26T01:49:33.072Z,95.25
2022-09-26T01:50:33.037Z,95.25
2022-09-26T01:51:33.031Z,95.65
2022-09-26T01:52:33.002Z,95.56
2022-09-26T01:53:32.994Z,95.45
2022-09-26T01:54:33.014Z,95.25
2022-09-26T01:55:32.983Z,95.45
2022-09-26T01:56:32.974Z,95.45
2022-09-26T01:57:32.965Z,95.65
2022-09-26T01:58:32.943Z,95.65
2022-09-26T01:59:32.986Z,95.76
2022-09-26T02:00:33.045Z,95.96
2022-09-26T02:01:33.002Z,95.86
2022-09-26T02:02:32.995Z,95.76
2022-09-26T02:03:32.886Z,95.19
2022-09-26T02:04:32.885Z,95.39
2022-09-26T02:05:32.897Z,96.11
2022-09-26T02:06:32.868Z,96.51
2022-09-26T02:07:32.858Z,96.51
2022-09-26T02:08:32.836Z,96.51
2022-09-26T02:09:32.827Z,96.51
2022-09-26T02:10:32.858Z,96.31
2022-09-26T02:11:32.810Z,95.90
2022-09-26T02:12:32.817Z,96.11
2022-09-26T02:13:32.801Z,96.26
2022-09-26T02:14:32.769Z,96.36
2022-09-26T02:15:32.760Z,96.56
2022-09-26T02:16:32.811Z,96.77
2022-09-26T02:17:32.741Z,96.77
2022-09-26T02:18:32.730Z,96.77
2022-09-26T02:19:32.719Z,96.67
2022-09-26T02:20:32.708Z,96.67
2022-09-26T02:21:32.730Z,97.08
2022-09-26T02:22:32.693Z,97.28
2022-09-26T02:23:32.690Z,97.17
2022-09-26T02:24:32.658Z,97.17
2022-09-26T02:25:32.656Z,96.87
2022-09-26T02:26:32.659Z,96.97
2022-09-26T02:27:32.621Z,97.17
2022-09-26T02:28:32.623Z,97.49
2022-09-26T02:29:32.626Z,97.28
2022-09-26T02:30:32.593Z,96.97
2022-09-26T02:31:32.658Z,97.08
2022-09-26T02:32:32.577Z,97.28
2022-09-26T02:33:32.665Z,97.49
2022-09-26T02:34:32.584Z,97.28
2022-09-26T02:35:32.555Z,97.28
2022-09-26T02:36:32.574Z,97.28
2022-09-26T02:37:32.542Z,97.28
2022-09-26T02:38:32.512Z,97.17
2022-09-26T02:39:32.504Z,97.17
2022-09-26T02:40:32.549Z,96.97
2022-09-26T02:41:32.486Z,97.08
2022-09-26T02:42:32.509Z,96.97
2022-09-26T02:43:32.467Z,96.97
2022-09-26T02:44:32.434Z,97.12
2022-09-26T02:45:32.455Z,97.12
2022-09-26T02:46:32.427Z,97.42
2022-09-26T02:47:32.536Z,97.63
2022-09-26T02:48:32.396Z,97.63
2022-09-26T02:49:32.408Z,97.98
2022-09-26T02:50:33.644Z,98.39
2022-09-26T02:51:32.376Z,98.49
2022-09-26T02:52:32.366Z,98.65
2022-09-26T02:53:32.401Z,98.45
2022-09-26T02:54:32.348Z,98.45
2022-09-26T02:55:32.337Z,98.45
2022-09-26T02:56:32.340Z,98.45
2022-09-26T02:57:32.323Z,97.63
2022-09-26T02:58:32.330Z,97.63
2022-09-26T02:59:32.290Z,97.67
2022-09-26T03:00:32.272Z,97.57
2022-09-26T03:01:32.338Z,97.98
2022-09-26T03:02:32.279Z,98.39
2022-09-26T03:03:32.295Z,98.39
2022-09-26T03:04:32.308Z,98.60
2022-09-26T03:05:32.232Z,98.60
2022-09-26T03:06:32.209Z,98.70
2022-09-26T03:07:32.310Z,98.70
2022-09-26T03:08:32.180Z,98.39
2022-09-26T03:09:32.182Z,98.39
2022-09-26T03:10:32.223Z,98.19
2022-09-26T03:11:32.151Z,97.74
2022-09-26T03:12:32.155Z,97.47
2022-09-26T03:13:32.174Z,97.37
2022-09-26T03:14:32.164Z,97.16
2022-09-26T03:15:32.113Z,96.86
2022-09-26T03:16:32.154Z,97.12
2022-09-26T03:17:32.097Z,97.12
2022-09-26T03:18:32.127Z,96.81
2022-09-26T03:19:32.063Z,96.75
2022-09-26T03:20:32.064Z,96.55
2022-09-26T03:21:36.119Z,96.86
2022-09-26T03:22:33.043Z,96.86
2022-09-26T03:23:32.036Z,96.75
2022-09-26T03:24:32.058Z,96.71
2022-09-26T03:25:32.015Z,96.45
2022-09-26T03:26:31.997Z,96.25
2022-09-26T03:27:31.987Z,96.14
2022-09-26T03:28:37.473Z,96.55
2022-09-26T03:29:32.987Z,96.55
2022-09-26T03:30:31.980Z,96.75
2022-09-26T03:31:32.041Z,96.55
2022-09-26T03:32:31.937Z,96.55
2022-09-26T03:33:31.938Z,96.55
2022-09-26T03:34:31.971Z,96.25
2022-09-26T03:35:31.910Z,96.25
2022-09-26T03:36:31.898Z,96.34
2022-09-26T03:37:31.880Z,96.55
2022-09-26T03:38:31.869Z,96.75
2022-09-26T03:39:31.849Z,97.12
2022-09-26T03:40:31.937Z,95.84
2022-09-26T03:41:31.832Z,95.53
2022-09-26T03:42:31.829Z,95.84
2022-09-26T03:43:31.892Z,96.25
2022-09-26T03:44:31.838Z,96.34
2022-09-26T03:45:31.837Z,96.66
2022-09-26T03:46:35.003Z,97.22
2022-09-26T03:47:32.770Z,97.53
2022-09-26T03:48:31.770Z,97.22
2022-09-26T03:49:31.770Z,96.41
2022-09-26T03:50:31.740Z,96.20
2022-09-26T03:51:31.731Z,96.46
2022-09-26T03:52:31.723Z,96.56
2022-09-26T03:53:31.703Z,95.75
2022-09-26T03:54:31.732Z,95.34
2022-09-26T03:55:31.716Z,95.44
2022-09-26T03:56:31.672Z,95.34
2022-09-26T03:57:31.663Z,95.34
2022-09-26T03:58:31.656Z,95.75
2022-09-26T03:59:31.632Z,96.05
2022-09-26T04:00:31.770Z,95.23
2022-09-26T04:01:31.665Z,95.13
2022-09-26T04:02:31.626Z,94.73
2022-09-26T04:03:31.615Z,95.03
2022-09-26T04:04:31.605Z,94.93
2022-09-26T04:05:31.582Z,95.34
2022-09-26T04:06:31.615Z,94.82
2022-09-26T04:07:31.557Z,95.03
2022-09-26T04:08:31.557Z,95.03
2022-09-26T04:09:31.527Z,94.93
2022-09-26T04:10:31.515Z,95.13
2022-09-26T04:11:31.565Z,95.03
2022-09-26T04:12:31.497Z,95.13
2022-09-26T04:13:50.487Z,94.42
2022-09-26T04:14:32.477Z,95.13
2022-09-26T04:15:31.470Z,95.13
2022-09-26T04:16:31.472Z,94.32
2022-09-26T04:17:31.558Z,94.26
2022-09-26T04:18:31.456Z,94.82
2022-09-26T04:19:31.428Z,94.87
2022-09-26T04:20:31.420Z,94.77
2022-09-26T04:21:31.397Z,94.67
2022-09-26T04:22:31.394Z,95.34
2022-09-26T04:23:31.390Z,95.64
2022-09-26T04:24:31.403Z,95.64
2022-09-26T04:25:31.352Z,95.64
2022-09-26T04:26:31.352Z,95.13
2022-09-26T04:27:31.329Z,94.62
2022-09-26T04:28:31.332Z,94.15
2022-09-26T04:29:31.357Z,94.56
2022-09-26T04:30:31.322Z,95.44
2022-09-26T04:31:31.314Z,95.95
2022-09-26T04:32:31.321Z,96.46
2022-09-26T04:33:31.318Z,95.95
2022-09-26T04:34:31.275Z,95.44
2022-09-26T04:35:31.257Z,95.23
2022-09-26T04:36:31.255Z,95.54
2022-09-26T04:37:31.220Z,95.85
2022-09-26T04:38:31.214Z,95.03
2022-09-26T04:39:31.254Z,95.23
2022-09-26T04:40:31.241Z,95.23
2022-09-26T04:41:31.185Z,95.03
2022-09-26T04:42:31.185Z,94.15
2022-09-26T04:43:31.162Z,94.36
2022-09-26T04:44:31.153Z,93.95
2022-09-26T04:45:31.250Z,94.36
2022-09-26T04:46:31.477Z,94.20
2022-09-26T04:47:31.126Z,94.71
2022-09-26T04:48:31.105Z,94.92
2022-09-26T04:49:31.099Z,94.81
2022-09-26T04:50:31.086Z,94.81
2022-09-26T04:51:31.112Z,94.81
2022-09-26T04:52:31.054Z,95.22
2022-09-26T04:53:31.055Z,95.63
2022-09-26T04:54:31.051Z,95.43
2022-09-26T04:55:31.025Z,95.89
2022-09-26T04:56:31.075Z,96.81
2022-09-26T04:57:31.020Z,96.10
2022-09-26T04:58:31.018Z,95.69
2022-09-26T04:59:31.000Z,95.07
2022-09-26T05:00:31.017Z,94.87
2022-09-26T05:01:31.070Z,95.28
2022-09-26T05:02:31.061Z,95.59
2022-09-26T05:03:30.941Z,95.18
2022-09-26T05:04:30.929Z,95.18
2022-09-26T05:05:30.939Z,95.38
2022-09-26T05:06:30.910Z,94.77
2022-09-26T05:07:30.908Z,94.15
2022-09-26T05:08:30.885Z,94.67
2022-09-26T05:09:35.753Z,95.48
2022-09-26T05:10:31.915Z,95.38
2022-09-26T05:11:30.871Z,94.97
2022-09-26T05:12:30.860Z,94.97
2022-09-26T05:13:30.851Z,94.46
2022-09-26T05:14:30.852Z,94.36
2022-09-26T05:15:30.820Z,94.26
2022-09-26T05:16:30.971Z,94.06
2022-09-26T05:17:30.780Z,93.95
2022-09-26T05:18:30.805Z,93.85
2022-09-26T05:19:30.784Z,93.85
2022-09-26T05:20:30.772Z,94.30
2022-09-26T05:21:30.775Z,94.97
2022-09-26T05:22:30.802Z,93.79
2022-09-26T05:23:30.730Z,93.69
2022-09-26T05:24:30.737Z,93.69
2022-09-26T05:25:30.714Z,93.89
2022-09-26T05:26:30.720Z,94.30
2022-09-26T05:27:30.707Z,95.12
2022-09-26T05:28:30.716Z,95.53
2022-09-26T05:29:30.677Z,95.02
2022-09-26T05:30:30.665Z,94.30
2022-09-26T05:31:30.757Z,94.60
2022-09-26T05:32:30.646Z,94.81
2022-09-26T05:33:30.646Z,94.30
2022-09-26T05:34:30.615Z,93.93
2022-09-26T05:35:30.606Z,94.55
2022-09-26T05:36:30.651Z,95.02
2022-09-26T05:37:30.586Z,95.02
2022-09-26T05:38:30.590Z,95.12
2022-09-26T05:39:30.568Z,95.12
2022-09-26T05:40:30.635Z,94.92
2022-09-26T05:41:30.537Z,94.51
2022-09-26T05:42:30.539Z,94.81
2022-09-26T05:43:30.527Z,94.10
2022-09-26T05:44:30.529Z,95.02
2022-09-26T05:45:30.536Z,95.22
2022-09-26T05:46:30.514Z,95.02
2022-09-26T05:47:30.480Z,95.22
2022-09-26T05:48:30.478Z,94.81
2022-09-26T05:49:30.465Z,94.81
2022-09-26T05:50:30.459Z,94.71
2022-09-26T05:51:30.469Z,93.99
2022-09-26T05:52:30.431Z,94.40
2022-09-26T05:53:30.423Z,94.71
2022-09-26T05:54:30.399Z,94.81
2022-09-26T05:55:30.400Z,93.99
2022-09-26T05:56:30.510Z,93.79
2022-09-26T05:57:30.369Z,94.30
2022-09-26T05:58:30.360Z,94.81
2022-09-26T05:59:30.381Z,94.60
2022-09-26T06:00:30.343Z,94.60
2022-09-26T06:01:30.401Z,94.51
2022-09-26T06:02:30.385Z,94.20
2022-09-26T06:03:30.303Z,94.26
2022-09-26T06:04:30.431Z,94.46
2022-09-26T06:05:30.301Z,94.67
2022-09-26T06:06:30.273Z,94.67
2022-09-26T06:07:30.282Z,93.33
2022-09-26T06:08:30.233Z,93.44
2022-09-26T06:09:30.289Z,93.44
2022-09-26T06:10:30.237Z,94.06
2022-09-26T06:11:30.224Z,94.67
2022-09-26T06:12:30.214Z,95.07
2022-09-26T06:13:30.212Z,94.87
2022-09-26T06:14:30.194Z,93.74
2022-09-26T06:15:30.198Z,93.44
2022-09-26T06:16:30.219Z,93.33
2022-09-26T06:17:30.155Z,93.03
2022-09-26T06:18:30.167Z,92.93
2022-09-26T06:19:30.126Z,93.80
2022-09-26T06:20:30.128Z,94.01
2022-09-26T06:21:30.108Z,95.23
2022-09-26T06:22:30.127Z,94.93
2022-09-26T06:23:30.118Z,94.62
2022-09-26T06:24:30.083Z,94.62
2022-09-26T06:25:30.071Z,93.09
2022-09-26T06:26:30.049Z,92.88
2022-09-26T06:27:30.058Z,93.91
2022-09-26T06:28:30.029Z,93.96
2022-09-26T06:29:30.046Z,92.68
2022-09-26T06:30:30.008Z,92.27
2022-09-26T06:31:30.203Z,91.96
2022-09-26T06:32:30.001Z,92.17
2022-09-26T06:33:33.355Z,92.78
2022-09-26T06:34:29.989Z,92.68
2022-09-26T06:35:29.961Z,93.29
2022-09-26T06:36:29.963Z,93.29
2022-09-26T06:37:29.980Z,93.19
2022-09-26T06:38:29.928Z,92.88
2022-09-26T06:39:29.897Z,92.07
2022-09-26T06:40:29.989Z,91.86
2022-09-26T06:41:29.891Z,92.64
2022-09-26T06:42:29.883Z,93.66
2022-09-26T06:43:29.874Z,92.84
2022-09-26T06:44:29.853Z,92.43
2022-09-26T06:45:30.127Z,92.84
2022-09-26T06:46:29.903Z,93.66
2022-09-26T06:47:29.833Z,93.86
2022-09-26T06:48:29.822Z,93.55
2022-09-26T06:49:29.814Z,92.84
2022-09-26T06:50:29.792Z,92.94
2022-09-26T06:51:29.860Z,91.61
2022-09-26T06:52:29.771Z,92.54
2022-09-26T06:53:29.763Z,92.54
2022-09-26T06:54:29.763Z,91.82
2022-09-26T06:55:29.781Z,92.94
2022-09-26T06:56:29.756Z,92.64
2022-09-26T06:57:29.785Z,92.74
2022-09-26T06:58:29.725Z,93.35
2022-09-26T06:59:29.750Z,93.51
2022-09-26T07:00:29.789Z,92.80
2022-09-26T07:01:29.880Z,92.49
2022-09-26T07:02:29.696Z,92.19
2022-09-26T07:03:29.696Z,91.57
2022-09-26T07:04:29.646Z,92.29
2022-09-26T07:05:29.639Z,91.78
2022-09-26T07:06:29.645Z,92.39
2022-09-26T07:07:29.631Z,92.19
2022-09-26T07:08:57.296Z,92.08
2022-09-26T07:09:30.592Z,92.19
2022-09-26T07:10:29.660Z,92.90
2022-09-26T07:11:46.282Z,92.80
2022-09-26T07:12:30.564Z,92.49
2022-09-26T07:13:29.652Z,92.90
2022-09-26T07:14:29.549Z,93.57
2022-09-26T07:15:29.528Z,93.47
2022-09-26T07:16:29.624Z,92.45
2022-09-26T07:17:29.499Z,92.35
2022-09-26T07:18:29.507Z,92.14
2022-09-26T07:19:29.512Z,91.22
2022-09-26T07:20:29.479Z,91.22
2022-09-26T07:21:29.464Z,92.55
2022-09-26T07:22:29.460Z,91.63
2022-09-26T07:23:29.459Z,92.76
2022-09-26T07:24:29.430Z,91.02
2022-09-26T07:25:29.420Z,91.12
2022-09-26T07:26:29.424Z,91.69
2022-09-26T07:27:29.402Z,91.59
2022-09-26T07:28:29.429Z,91.28
2022-09-26T07:29:29.388Z,91.49
2022-09-26T07:30:29.361Z,92.91
2022-09-26T07:31:29.420Z,92.81
2022-09-26T07:32:29.354Z,92.20
2022-09-26T07:33:29.334Z,92.50
2022-09-26T07:34:29.354Z,93.02
2022-09-26T07:35:29.302Z,91.89
2022-09-26T07:36:29.294Z,90.88
2022-09-26T07:37:29.297Z,91.18
2022-09-26T07:38:29.275Z,91.59
2022-09-26T07:39:29.291Z,91.28
2022-09-26T07:40:29.304Z,90.94
2022-09-26T07:41:29.235Z,91.96
2022-09-26T07:42:29.234Z,90.73
2022-09-26T07:44:04.590Z,90.22
2022-09-26T07:45:30.319Z,90.94
2022-09-26T07:46:29.234Z,90.12
2022-09-26T07:47:29.174Z,89.51
2022-09-26T07:48:29.178Z,90.12
2022-09-26T07:49:29.166Z,90.42
2022-09-26T07:50:29.335Z,90.22
2022-09-26T07:51:29.136Z,90.32
2022-09-26T07:52:30.354Z,90.83
2022-09-26T07:53:29.107Z,91.85
2022-09-26T07:54:29.108Z,91.35
2022-09-26T07:55:29.099Z,90.83
2022-09-26T07:56:29.125Z,90.53
2022-09-26T07:57:29.069Z,91.24
2022-09-26T07:58:29.080Z,90.32
2022-09-26T07:59:29.062Z,90.48
2022-09-26T08:00:29.039Z,90.59
2022-09-26T08:01:29.035Z,89.97
2022-09-26T08:02:29.240Z,89.97
2022-09-26T08:03:28.999Z,89.97
2022-09-26T08:04:28.993Z,91.09
2022-09-26T08:05:28.991Z,90.18
2022-09-26T08:06:29.000Z,90.08
2022-09-26T08:07:28.960Z,89.47
2022-09-26T08:08:28.981Z,89.77
2022-09-26T08:09:28.974Z,89.16
2022-09-26T08:10:28.942Z,89.47
2022-09-26T08:11:28.932Z,89.26
2022-09-26T08:12:28.940Z,88.34
2022-09-26T08:13:28.905Z,89.06
2022-09-26T08:14:28.923Z,89.06
2022-09-26T08:15:28.885Z,88.65
2022-09-26T08:16:28.955Z,89.57
2022-09-26T08:17:28.872Z,89.42
2022-09-26T08:18:28.855Z,90.03
2022-09-26T08:19:28.834Z,90.55
2022-09-26T08:20:32.182Z,89.83
2022-09-26T08:21:28.830Z,88.24
2022-09-26T08:22:28.817Z,88.51
2022-09-26T08:23:28.838Z,89.73
2022-09-26T08:24:28.786Z,89.63
2022-09-26T08:25:28.803Z,89.12
2022-09-26T08:26:28.758Z,88.51
2022-09-26T08:27:28.757Z,88.51
2022-09-26T08:28:28.775Z,88.71
2022-09-26T08:29:28.727Z,89.22
2022-09-26T08:30:28.748Z,89.53
2022-09-26T08:31:28.806Z,89.32
2022-09-26T08:32:28.705Z,89.94
2022-09-26T08:33:28.691Z,89.73
2022-09-26T08:34:28.686Z,89.32
2022-09-26T08:35:28.676Z,89.12
2022-09-26T08:36:28.658Z,88.92
2022-09-26T08:37:28.649Z,88.00
2022-09-26T08:38:28.648Z,88.77
2022-09-26T08:39:33.113Z,88.98
2022-09-26T08:40:28.699Z,87.75
2022-09-26T08:41:28.600Z,88.06
2022-09-26T08:42:28.646Z,88.67
2022-09-26T08:43:28.619Z,89.28
2022-09-26T08:44:28.592Z,90.20
2022-09-26T08:45:28.548Z,90.20
2022-09-26T08:46:28.633Z,88.67
2022-09-26T08:47:28.543Z,88.67
2022-09-26T08:48:28.571Z,90.25
2022-09-26T08:49:28.511Z,88.02
2022-09-26T08:50:28.505Z,88.02
2022-09-26T08:51:29.447Z,87.30
2022-09-26T08:52:28.482Z,87.10
2022-09-26T08:53:28.475Z,87.10
2022-09-26T08:54:28.491Z,87.30
2022-09-26T08:55:28.440Z,87.20
2022-09-26T08:56:28.434Z,87.00
2022-09-26T08:57:28.422Z,86.90
2022-09-26T08:58:29.055Z,87.37
2022-09-26T08:59:28.434Z,88.69
2022-09-26T09:00:28.395Z,86.86
2022-09-26T09:01:28.665Z,86.15
2022-09-26T09:02:28.476Z,86.25
2022-09-26T09:03:28.353Z,86.45
2022-09-26T09:04:28.353Z,86.55
2022-09-26T09:05:28.334Z,86.45
2022-09-26T09:06:28.326Z,88.24
2022-09-26T09:07:28.375Z,87.02
2022-09-26T09:08:28.299Z,87.02
2022-09-26T09:09:28.295Z,85.90
2022-09-26T09:10:28.288Z,86.71
2022-09-26T09:11:28.266Z,88.13
2022-09-26T09:12:32.105Z,87.73
2022-09-26T09:13:28.246Z,85.29
2022-09-26T09:14:28.240Z,85.80
2022-09-26T09:15:28.235Z,86.51
2022-09-26T09:16:28.267Z,85.80
2022-09-26T09:17:28.326Z,85.29
2022-09-26T09:18:28.217Z,83.32
2022-09-26T09:19:28.214Z,83.93
2022-09-26T09:20:28.188Z,84.34
2022-09-26T09:21:28.159Z,84.23
2022-09-26T09:22:28.148Z,84.95
2022-09-26T09:23:28.151Z,84.13
2022-09-26T09:24:28.499Z,84.09
2022-09-26T09:25:28.129Z,84.09
2022-09-26T09:28:29.108Z,83.59
2022-09-26T09:29:28.080Z,81.45
2022-09-26T09:30:28.094Z,83.28
2022-09-26T09:31:28.122Z,82.84
2022-09-26T09:32:28.053Z,84.26
2022-09-26T09:33:28.174Z,83.65
2022-09-26T09:34:28.025Z,84.87
2022-09-26T09:35:28.019Z,83.85
2022-09-26T09:36:27.990Z,84.56
2022-09-26T09:37:28.053Z,83.34
2022-09-26T09:38:27.983Z,84.26
2022-09-26T09:39:27.971Z,83.75
2022-09-26T09:40:28.149Z,83.54
2022-09-26T09:41:27.952Z,85.17
2022-09-26T09:42:28.083Z,85.78
2022-09-26T09:43:27.945Z,83.65
2022-09-26T09:44:27.923Z,84.97
2022-09-26T09:45:27.912Z,84.36
2022-09-26T09:46:27.942Z,83.10
2022-09-26T09:47:28.148Z,82.59
2022-09-26T09:48:27.865Z,82.09
2022-09-26T09:49:27.853Z,81.88
2022-09-26T09:50:27.857Z,83.91
2022-09-26T09:51:27.843Z,82.59
2022-09-26T09:52:28.018Z,83.10
2022-09-26T09:53:27.826Z,82.09
2022-09-26T09:54:27.806Z,81.64
2022-09-26T09:55:27.795Z,81.54
2022-09-26T09:56:27.783Z,83.37
2022-09-26T09:57:27.757Z,81.85
2022-09-26T09:58:27.785Z,83.06
2022-09-26T09:59:27.848Z,81.95
2022-09-26T10:00:27.746Z,83.67
2022-09-26T10:01:27.725Z,83.43
2022-09-26T10:02:27.748Z,81.91
2022-09-26T10:03:27.758Z,81.60
2022-09-26T10:04:27.712Z,82.21
2022-09-26T10:05:27.687Z,83.03
2022-09-26T10:06:46.280Z,82.82
2022-09-26T10:07:28.659Z,78.77
2022-09-26T10:08:27.650Z,82.11
2022-09-26T10:09:39.630Z,81.77
2022-09-26T10:10:28.678Z,81.57
2022-09-26T10:11:27.620Z,81.16
2022-09-26T10:12:27.608Z,79.85
2022-09-26T10:13:27.601Z,79.94
2022-09-26T10:14:27.606Z,79.94
2022-09-26T10:15:27.687Z,80.05
2022-09-26T10:16:27.654Z,79.13
2022-09-26T10:17:27.540Z,80.05
2022-09-26T10:18:27.637Z,75.59
2022-09-26T10:19:27.533Z,78.12
2022-09-26T10:20:27.562Z,78.63
2022-09-26T10:21:27.541Z,80.35
2022-09-26T10:22:27.500Z,80.55
2022-09-26T10:23:27.491Z,80.35
2022-09-26T10:24:27.496Z,80.15
2022-09-26T10:25:27.475Z,80.15
2022-09-26T10:26:31.337Z,78.93
2022-09-26T10:27:27.449Z,78.22
2022-09-26T10:28:27.444Z,81.57
2022-09-26T10:29:27.429Z,81.97
2022-09-26T10:30:27.433Z,81.37
2022-09-26T10:31:27.460Z,79.64
2022-09-26T10:32:27.402Z,79.94
2022-09-26T10:33:27.424Z,80.59
2022-09-26T10:34:27.395Z,79.74
2022-09-26T10:35:27.376Z,80.65
2022-09-26T10:36:27.490Z,80.76
2022-09-26T10:37:27.341Z,81.77
2022-09-26T10:38:27.370Z,79.85
2022-09-26T10:39:27.317Z,80.86
2022-09-26T10:40:27.370Z,82.07
2022-09-26T10:41:27.297Z,78.83
2022-09-26T10:42:32.011Z,80.76
2022-09-26T10:43:28.267Z,80.65
2022-09-26T10:44:27.266Z,81.26
2022-09-26T10:45:27.289Z,79.44
2022-09-26T10:46:27.293Z,77.51
2022-09-26T10:47:27.230Z,80.45
2022-09-26T10:48:27.258Z,81.06
2022-09-26T10:49:27.198Z,79.34
2022-09-26T10:50:27.197Z,79.44
2022-09-26T10:51:27.222Z,77.51
2022-09-26T10:52:27.188Z,79.03
2022-09-26T10:53:27.167Z,80.86
2022-09-26T10:54:27.179Z,81.16
2022-09-26T10:55:27.217Z,80.76
2022-09-26T10:56:27.140Z,79.44
2022-09-26T10:57:27.908Z,79.34
2022-09-26T10:58:27.121Z,79.34
2022-09-26T10:59:27.088Z,80.15
2022-09-26T11:00:27.132Z,80.45
2022-09-26T11:01:27.127Z,78.83
2022-09-26T11:02:27.082Z,81.97
2022-09-26T11:03:27.087Z,78.42
2022-09-26T11:04:27.058Z,80.45
2022-09-26T11:05:27.041Z,79.44
2022-09-26T11:06:27.061Z,79.64
2022-09-26T11:07:27.023Z,81.26
2022-09-26T11:08:27.165Z,78.53
2022-09-26T11:09:27.004Z,78.73
2022-09-26T11:10:27.003Z,77.92
2022-09-26T11:11:27.024Z,80.35
2022-09-26T11:12:26.975Z,79.74
2022-09-26T11:13:26.954Z,78.02
2022-09-26T11:14:28.379Z,77.92
2022-09-26T11:15:26.983Z,79.64
2022-09-26T11:16:26.995Z,78.42
2022-09-26T11:17:26.905Z,76.90
2022-09-26T11:18:26.905Z,76.80
2022-09-26T11:19:26.896Z,79.03
2022-09-26T11:20:27.035Z,80.45
2022-09-26T11:21:29.244Z,78.33
2022-09-26T11:22:26.866Z,79.10
2022-09-26T11:23:26.837Z,78.79
2022-09-26T11:24:26.850Z,79.00
2022-09-26T11:25:26.827Z,81.12
2022-09-26T11:26:26.859Z,77.58
2022-09-26T11:27:26.808Z,78.02
2022-09-26T11:28:26.811Z,78.12
2022-09-26T11:29:26.778Z,78.33
2022-09-26T11:30:26.787Z,79.24
2022-09-26T11:31:26.856Z,78.33
2022-09-26T11:32:26.790Z,78.53
2022-09-26T11:33:26.749Z,77.07
2022-09-26T11:34:26.743Z,76.97
2022-09-26T11:35:26.720Z,78.39
2022-09-26T11:36:26.710Z,77.68
2022-09-26T11:37:26.762Z,78.19
2022-09-26T11:38:26.691Z,79.91
2022-09-26T11:39:26.670Z,78.59
2022-09-26T11:40:26.724Z,78.08
2022-09-26T11:41:26.732Z,78.39
2022-09-26T11:42:26.680Z,79.20
2022-09-26T11:43:26.682Z,78.69
2022-09-26T11:44:26.632Z,77.78
2022-09-26T11:45:26.611Z,76.56
2022-09-26T11:46:26.660Z,79.80
2022-09-26T11:47:26.592Z,77.58
2022-09-26T11:48:26.615Z,75.76
2022-09-26T11:49:26.565Z,77.75
2022-09-26T11:50:26.562Z,76.03
2022-09-26T11:51:26.541Z,77.44
2022-09-26T11:52:26.572Z,76.93
2022-09-26T11:53:26.535Z,79.06
2022-09-26T11:54:26.515Z,78.66
2022-09-26T11:55:26.503Z,79.36
2022-09-26T11:56:26.495Z,80.78
2022-09-26T11:57:26.546Z,79.00
2022-09-26T11:58:26.476Z,79.00
2022-09-26T11:59:26.469Z,79.71
2022-09-26T12:00:26.471Z,76.16
2022-09-26T12:01:26.437Z,77.44
2022-09-26T12:02:26.505Z,77.95
2022-09-26T12:03:26.590Z,78.66
2022-09-26T12:04:26.415Z,76.53
2022-09-26T12:05:27.601Z,79.36
2022-09-26T12:06:26.396Z,76.43
2022-09-26T12:07:26.376Z,78.45
2022-09-26T12:08:26.400Z,77.84
2022-09-26T12:09:26.365Z,80.07
2022-09-26T12:10:26.379Z,78.15
2022-09-26T12:11:26.327Z,76.43
2022-09-26T12:12:26.329Z,78.66
2022-09-26T12:13:26.311Z,77.54
2022-09-26T12:14:26.310Z,76.93
2022-09-26T12:15:26.294Z,77.84
2022-09-26T12:16:26.346Z,78.25
2022-09-26T12:17:26.270Z,77.03
2022-09-26T12:18:26.261Z,78.35
2022-09-26T12:19:26.261Z,77.95
2022-09-26T12:20:26.241Z,77.44
2022-09-26T12:21:26.251Z,76.63
2022-09-26T12:22:26.238Z,78.55
2022-09-26T12:23:26.222Z,77.44
2022-09-26T12:24:26.203Z,77.03
2022-09-26T12:25:26.182Z,77.54
2022-09-26T12:26:26.232Z,79.57
2022-09-26T12:27:26.172Z,80.84
2022-09-26T12:28:26.161Z,80.04
2022-09-26T12:29:26.144Z,78.42
2022-09-26T12:30:26.167Z,78.52
2022-09-26T12:31:26.232Z,78.01
2022-09-26T12:32:26.104Z,77.40
2022-09-26T12:33:26.103Z,75.99
2022-09-26T12:34:26.095Z,78.52
2022-09-26T12:35:26.124Z,74.37
2022-09-26T12:36:26.092Z,76.79
2022-09-26T12:37:26.066Z,79.39
2022-09-26T12:38:26.049Z,78.28
2022-09-26T12:39:26.036Z,75.65
2022-09-26T12:40:26.075Z,76.66
2022-09-26T12:41:26.025Z,76.39
2022-09-26T12:42:26.027Z,79.29
2022-09-26T12:43:26.023Z,77.40
2022-09-26T12:44:25.978Z,77.91
2022-09-26T12:45:25.971Z,75.28
2022-09-26T12:46:26.070Z,76.79
2022-09-26T12:47:25.947Z,74.87
2022-09-26T12:48:25.979Z,74.74
2022-09-26T12:49:25.927Z,75.85
2022-09-26T12:50:25.920Z,73.83
2022-09-26T12:51:25.910Z,74.23
2022-09-26T12:52:27.431Z,74.63
2022-09-26T12:53:26.222Z,75.95
2022-09-26T12:54:25.883Z,76.35
2022-09-26T12:55:25.867Z,77.77